sensor_id;sensor_type;location;lat;lon;timestamp;P1;durP1;ratioP1;P2;durP2;ratioP2
24547;SDS011;12713;51.624;4.924;2022-09-23T00:00:30;10.68;;;9.15;;
24547;SDS011;12713;51.624;4.924;2022-09-23T00:02:56;12.50;;;9.27;;
24547;SDS011;12713;51.624;4.924;2022-09-23T00:05:24;12.20;;;9.02;;
24547;SDS011;12713;51.624;4.924;2022-09-23T00:07:50;15.30;;;10.43;;
24547;SDS011;12713;51.624;4.924;2022-09-23T00:10:16;11.75;;;10.30;;
24547;SDS011;12713;51.624;4.924;2022-09-23T00:12:42;10.73;;;8.88;;
24547;SDS011;12713;51.624;4.924;2022-09-23T00:15:08;14.23;;;9.98;;
24547;SDS011;12713;51.624;4.924;2022-09-23T00:17:35;11.77;;;8.95;;
24547;SDS011;12713;51.624;4.924;2022-09-23T00:20:01;12.00;;;9.48;;
24547;SDS011;12713;51.624;4.924;2022-09-23T00:22:27;13.38;;;10.13;;
24547;SDS011;12713;51.624;4.924;2022-09-23T00:24:53;13.80;;;8.60;;
24547;SDS011;12713;51.624;4.924;2022-09-23T00:27:19;14.93;;;9.52;;
24547;SDS011;12713;51.624;4.924;2022-09-23T00:29:46;10.38;;;8.82;;
24547;SDS011;12713;51.624;4.924;2022-09-23T00:32:12;11.00;;;8.18;;
24547;SDS011;12713;51.624;4.924;2022-09-23T00:34:38;10.82;;;7.95;;
24547;SDS011;12713;51.624;4.924;2022-09-23T00:37:04;10.50;;;8.85;;
24547;SDS011;12713;51.624;4.924;2022-09-23T00:39:30;14.63;;;10.38;;
24547;SDS011;12713;51.624;4.924;2022-09-23T00:41:56;11.68;;;8.80;;
24547;SDS011;12713;51.624;4.924;2022-09-23T00:44:42;13.57;;;9.63;;
24547;SDS011;12713;51.624;4.924;2022-09-23T00:47:13;12.57;;;9.43;;
24547;SDS011;12713;51.624;4.924;2022-09-23T00:49:41;14.90;;;9.25;;
24547;SDS011;12713;51.624;4.924;2022-09-23T00:52:10;13.10;;;9.65;;
24547;SDS011;12713;51.624;4.924;2022-09-23T00:54:37;15.05;;;10.60;;
24547;SDS011;12713;51.624;4.924;2022-09-23T00:57:04;13.70;;;9.88;;
24547;SDS011;12713;51.624;4.924;2022-09-23T00:59:31;14.90;;;10.38;;
24547;SDS011;12713;51.624;4.924;2022-09-23T01:01:57;14.57;;;10.30;;
24547;SDS011;12713;51.624;4.924;2022-09-23T01:04:25;11.30;;;9.65;;
24547;SDS011;12713;51.624;4.924;2022-09-23T01:06:51;12.60;;;10.15;;
24547;SDS011;12713;51.624;4.924;2022-09-23T01:09:18;14.23;;;9.65;;
24547;SDS011;12713;51.624;4.924;2022-09-23T01:11:54;12.35;;;10.55;;
24547;SDS011;12713;51.624;4.924;2022-09-23T01:30:02;15.82;;;10.18;;
24547;SDS011;12713;51.624;4.924;2022-09-23T01:32:45;14.52;;;10.63;;
24547;SDS011;12713;51.624;4.924;2022-09-23T01:43:03;17.48;;;10.65;;
24547;SDS011;12713;51.624;4.924;2022-09-23T01:47:58;13.15;;;10.57;;
24547;SDS011;12713;51.624;4.924;2022-09-23T01:50:27;15.95;;;11.45;;
24547;SDS011;12713;51.624;4.924;2022-09-23T01:53:17;17.58;;;11.60;;
24547;SDS011;12713;51.624;4.924;2022-09-23T01:55:50;15.52;;;10.60;;
24547;SDS011;12713;51.624;4.924;2022-09-23T01:58:22;14.38;;;10.88;;
24547;SDS011;12713;51.624;4.924;2022-09-23T02:00:51;19.65;;;11.52;;
24547;SDS011;12713;51.624;4.924;2022-09-23T02:03:19;15.38;;;10.93;;
24547;SDS011;12713;51.624;4.924;2022-09-23T02:05:52;14.18;;;11.85;;
24547;SDS011;12713;51.624;4.924;2022-09-23T02:08:22;17.95;;;11.63;;
24547;SDS011;12713;51.624;4.924;2022-09-23T02:11:00;19.20;;;12.13;;
24547;SDS011;12713;51.624;4.924;2022-09-23T02:16:02;17.30;;;11.33;;
24547;SDS011;12713;51.624;4.924;2022-09-23T02:18:44;21.98;;;12.85;;
24547;SDS011;12713;51.624;4.924;2022-09-23T02:21:12;17.45;;;11.38;;
24547;SDS011;12713;51.624;4.924;2022-09-23T02:23:44;15.40;;;11.88;;
24547;SDS011;12713;51.624;4.924;2022-09-23T02:26:21;16.10;;;11.43;;
24547;SDS011;12713;51.624;4.924;2022-09-23T02:29:05;14.13;;;11.23;;
24547;SDS011;12713;51.624;4.924;2022-09-23T02:31:42;16.17;;;10.70;;
24547;SDS011;12713;51.624;4.924;2022-09-23T02:34:22;15.15;;;10.95;;
24547;SDS011;12713;51.624;4.924;2022-09-23T02:39:19;15.95;;;12.40;;
24547;SDS011;12713;51.624;4.924;2022-09-23T02:41:55;13.27;;;10.48;;
24547;SDS011;12713;51.624;4.924;2022-09-23T02:44:24;15.45;;;11.07;;
24547;SDS011;12713;51.624;4.924;2022-09-23T02:46:52;20.13;;;11.65;;
24547;SDS011;12713;51.624;4.924;2022-09-23T02:49:22;16.10;;;11.55;;
24547;SDS011;12713;51.624;4.924;2022-09-23T02:51:49;16.35;;;12.57;;
24547;SDS011;12713;51.624;4.924;2022-09-23T02:54:18;19.17;;;13.10;;
24547;SDS011;12713;51.624;4.924;2022-09-23T02:56:44;17.17;;;13.45;;
24547;SDS011;12713;51.624;4.924;2022-09-23T02:59:13;19.27;;;12.57;;
24547;SDS011;12713;51.624;4.924;2022-09-23T03:04:15;23.00;;;15.40;;
24547;SDS011;12713;51.624;4.924;2022-09-23T03:09:17;19.83;;;13.98;;
24547;SDS011;12713;51.624;4.924;2022-09-23T03:11:47;19.38;;;14.48;;
24547;SDS011;12713;51.624;4.924;2022-09-23T03:14:22;15.80;;;11.90;;
24547;SDS011;12713;51.624;4.924;2022-09-23T03:17:11;20.27;;;15.02;;
24547;SDS011;12713;51.624;4.924;2022-09-23T03:19:48;20.88;;;14.70;;
24547;SDS011;12713;51.624;4.924;2022-09-23T03:22:18;19.85;;;13.18;;
24547;SDS011;12713;51.624;4.924;2022-09-23T03:24:46;20.38;;;15.20;;
24547;SDS011;12713;51.624;4.924;2022-09-23T03:27:14;17.83;;;13.48;;
24547;SDS011;12713;51.624;4.924;2022-09-23T03:29:43;20.30;;;15.95;;
24547;SDS011;12713;51.624;4.924;2022-09-23T03:32:11;19.77;;;13.65;;
24547;SDS011;12713;51.624;4.924;2022-09-23T03:34:38;18.15;;;13.73;;
24547;SDS011;12713;51.624;4.924;2022-09-23T03:37:13;18.17;;;12.80;;
24547;SDS011;12713;51.624;4.924;2022-09-23T03:39:47;21.52;;;14.95;;
24547;SDS011;12713;51.624;4.924;2022-09-23T03:42:19;25.50;;;14.68;;
24547;SDS011;12713;51.624;4.924;2022-09-23T03:44:46;20.50;;;14.40;;
24547;SDS011;12713;51.624;4.924;2022-09-23T03:47:13;25.05;;;16.55;;
24547;SDS011;12713;51.624;4.924;2022-09-23T03:49:41;23.50;;;14.30;;
24547;SDS011;12713;51.624;4.924;2022-09-23T03:52:08;35.33;;;17.10;;
24547;SDS011;12713;51.624;4.924;2022-09-23T03:54:35;22.25;;;14.60;;
24547;SDS011;12713;51.624;4.924;2022-09-23T03:57:01;17.48;;;13.43;;
24547;SDS011;12713;51.624;4.924;2022-09-23T03:59:27;24.67;;;16.58;;
24547;SDS011;12713;51.624;4.924;2022-09-23T04:01:54;19.48;;;16.05;;
24547;SDS011;12713;51.624;4.924;2022-09-23T04:04:24;23.08;;;15.25;;
24547;SDS011;12713;51.624;4.924;2022-09-23T04:06:51;20.83;;;15.77;;
24547;SDS011;12713;51.624;4.924;2022-09-23T04:09:18;22.92;;;15.48;;
24547;SDS011;12713;51.624;4.924;2022-09-23T04:11:44;20.23;;;14.38;;
24547;SDS011;12713;51.624;4.924;2022-09-23T04:14:13;29.75;;;15.32;;
24547;SDS011;12713;51.624;4.924;2022-09-23T04:16:39;22.95;;;16.27;;
24547;SDS011;12713;51.624;4.924;2022-09-23T04:19:05;19.15;;;14.73;;
24547;SDS011;12713;51.624;4.924;2022-09-23T04:21:31;24.10;;;15.63;;
24547;SDS011;12713;51.624;4.924;2022-09-23T04:23:57;28.60;;;17.13;;
24547;SDS011;12713;51.624;4.924;2022-09-23T04:26:23;26.10;;;16.45;;
24547;SDS011;12713;51.624;4.924;2022-09-23T04:28:49;26.40;;;16.38;;
24547;SDS011;12713;51.624;4.924;2022-09-23T04:31:15;22.88;;;15.43;;
24547;SDS011;12713;51.624;4.924;2022-09-23T04:33:41;22.00;;;16.63;;
24547;SDS011;12713;51.624;4.924;2022-09-23T04:36:07;22.02;;;14.68;;
24547;SDS011;12713;51.624;4.924;2022-09-23T04:38:33;21.67;;;15.05;;
24547;SDS011;12713;51.624;4.924;2022-09-23T04:40:59;21.17;;;15.55;;
24547;SDS011;12713;51.624;4.924;2022-09-23T04:43:25;25.63;;;15.38;;
24547;SDS011;12713;51.624;4.924;2022-09-23T04:46:02;20.80;;;14.13;;
24547;SDS011;12713;51.624;4.924;2022-09-23T04:48:28;24.63;;;15.77;;
24547;SDS011;12713;51.624;4.924;2022-09-23T04:51:16;22.70;;;14.82;;
24547;SDS011;12713;51.624;4.924;2022-09-23T04:53:41;21.63;;;14.77;;
24547;SDS011;12713;51.624;4.924;2022-09-23T04:58:40;19.23;;;14.68;;
24547;SDS011;12713;51.624;4.924;2022-09-23T05:03:54;23.23;;;14.65;;
24547;SDS011;12713;51.624;4.924;2022-09-23T05:06:20;19.15;;;14.38;;
24547;SDS011;12713;51.624;4.924;2022-09-23T05:08:48;22.48;;;15.88;;
24547;SDS011;12713;51.624;4.924;2022-09-23T05:11:14;17.70;;;12.95;;
24547;SDS011;12713;51.624;4.924;2022-09-23T05:13:41;20.73;;;14.63;;
24547;SDS011;12713;51.624;4.924;2022-09-23T05:16:08;25.42;;;15.18;;
24547;SDS011;12713;51.624;4.924;2022-09-23T05:18:36;18.48;;;13.43;;
24547;SDS011;12713;51.624;4.924;2022-09-23T05:21:05;20.48;;;14.50;;
24547;SDS011;12713;51.624;4.924;2022-09-23T05:23:31;19.13;;;13.02;;
24547;SDS011;12713;51.624;4.924;2022-09-23T05:25:58;21.45;;;14.50;;
24547;SDS011;12713;51.624;4.924;2022-09-23T05:28:25;25.63;;;16.25;;
24547;SDS011;12713;51.624;4.924;2022-09-23T05:31:00;21.52;;;16.10;;
24547;SDS011;12713;51.624;4.924;2022-09-23T05:33:26;26.05;;;14.05;;
24547;SDS011;12713;51.624;4.924;2022-09-23T05:35:53;18.80;;;12.80;;
24547;SDS011;12713;51.624;4.924;2022-09-23T05:38:23;16.52;;;13.00;;
24547;SDS011;12713;51.624;4.924;2022-09-23T05:40:59;21.08;;;15.40;;
24547;SDS011;12713;51.624;4.924;2022-09-23T05:43:25;20.83;;;15.02;;
24547;SDS011;12713;51.624;4.924;2022-09-23T05:45:59;17.60;;;12.90;;
24547;SDS011;12713;51.624;4.924;2022-09-23T05:48:25;24.55;;;15.55;;
24547;SDS011;12713;51.624;4.924;2022-09-23T05:50:52;21.20;;;14.02;;
24547;SDS011;12713;51.624;4.924;2022-09-23T05:53:18;19.48;;;13.63;;
24547;SDS011;12713;51.624;4.924;2022-09-23T05:55:51;21.95;;;14.90;;
24547;SDS011;12713;51.624;4.924;2022-09-23T05:58:18;21.10;;;14.35;;
24547;SDS011;12713;51.624;4.924;2022-09-23T06:00:45;18.83;;;14.35;;
24547;SDS011;12713;51.624;4.924;2022-09-23T06:03:13;22.08;;;14.23;;
24547;SDS011;12713;51.624;4.924;2022-09-23T06:05:39;20.42;;;13.85;;
24547;SDS011;12713;51.624;4.924;2022-09-23T06:08:06;19.80;;;13.30;;
24547;SDS011;12713;51.624;4.924;2022-09-23T06:10:36;19.67;;;14.05;;
24547;SDS011;12713;51.624;4.924;2022-09-23T06:13:02;19.85;;;15.13;;
24547;SDS011;12713;51.624;4.924;2022-09-23T06:15:28;20.42;;;15.07;;
24547;SDS011;12713;51.624;4.924;2022-09-23T06:17:54;21.33;;;14.85;;
24547;SDS011;12713;51.624;4.924;2022-09-23T06:20:20;15.38;;;12.00;;
24547;SDS011;12713;51.624;4.924;2022-09-23T06:22:46;26.27;;;15.85;;
24547;SDS011;12713;51.624;4.924;2022-09-23T06:25:12;25.27;;;15.80;;
24547;SDS011;12713;51.624;4.924;2022-09-23T06:27:38;29.30;;;15.07;;
24547;SDS011;12713;51.624;4.924;2022-09-23T06:30:05;20.25;;;12.90;;
24547;SDS011;12713;51.624;4.924;2022-09-23T06:32:31;22.95;;;15.23;;
24547;SDS011;12713;51.624;4.924;2022-09-23T06:34:57;22.33;;;13.10;;
24547;SDS011;12713;51.624;4.924;2022-09-23T06:37:23;27.83;;;14.95;;
24547;SDS011;12713;51.624;4.924;2022-09-23T06:39:49;17.33;;;11.27;;
24547;SDS011;12713;51.624;4.924;2022-09-23T06:42:16;20.13;;;14.73;;
24547;SDS011;12713;51.624;4.924;2022-09-23T06:44:42;19.67;;;12.10;;
24547;SDS011;12713;51.624;4.924;2022-09-23T06:47:08;21.73;;;13.57;;
24547;SDS011;12713;51.624;4.924;2022-09-23T06:52:27;22.10;;;13.65;;
24547;SDS011;12713;51.624;4.924;2022-09-23T06:54:56;20.50;;;13.32;;
24547;SDS011;12713;51.624;4.924;2022-09-23T06:57:22;13.98;;;10.38;;
24547;SDS011;12713;51.624;4.924;2022-09-23T06:59:48;15.68;;;11.73;;
24547;SDS011;12713;51.624;4.924;2022-09-23T07:02:15;17.70;;;11.20;;
24547;SDS011;12713;51.624;4.924;2022-09-23T07:04:41;14.38;;;10.60;;
24547;SDS011;12713;51.624;4.924;2022-09-23T07:07:07;18.98;;;12.32;;
24547;SDS011;12713;51.624;4.924;2022-09-23T07:09:38;16.48;;;11.93;;
24547;SDS011;12713;51.624;4.924;2022-09-23T07:12:04;17.80;;;11.60;;
24547;SDS011;12713;51.624;4.924;2022-09-23T07:14:30;19.42;;;12.40;;
24547;SDS011;12713;51.624;4.924;2022-09-23T07:16:56;19.42;;;13.20;;
24547;SDS011;12713;51.624;4.924;2022-09-23T07:19:23;18.33;;;12.25;;
24547;SDS011;12713;51.624;4.924;2022-09-23T07:21:50;18.63;;;12.02;;
24547;SDS011;12713;51.624;4.924;2022-09-23T07:24:16;16.63;;;11.90;;
24547;SDS011;12713;51.624;4.924;2022-09-23T07:26:42;17.80;;;11.98;;
24547;SDS011;12713;51.624;4.924;2022-09-23T07:29:10;20.65;;;13.38;;
24547;SDS011;12713;51.624;4.924;2022-09-23T07:31:37;17.80;;;13.07;;
24547;SDS011;12713;51.624;4.924;2022-09-23T07:34:05;18.15;;;13.27;;
24547;SDS011;12713;51.624;4.924;2022-09-23T07:36:32;21.05;;;13.57;;
24547;SDS011;12713;51.624;4.924;2022-09-23T07:39:01;18.52;;;13.55;;
24547;SDS011;12713;51.624;4.924;2022-09-23T07:41:28;16.00;;;10.50;;
24547;SDS011;12713;51.624;4.924;2022-09-23T07:43:55;19.65;;;10.63;;
24547;SDS011;12713;51.624;4.924;2022-09-23T07:46:23;15.77;;;10.85;;
24547;SDS011;12713;51.624;4.924;2022-09-23T07:48:49;16.75;;;10.13;;
24547;SDS011;12713;51.624;4.924;2022-09-23T07:51:19;16.25;;;10.57;;
24547;SDS011;12713;51.624;4.924;2022-09-23T07:53:48;17.98;;;11.00;;
24547;SDS011;12713;51.624;4.924;2022-09-23T07:56:15;17.98;;;11.75;;
24547;SDS011;12713;51.624;4.924;2022-09-23T07:58:43;20.98;;;13.23;;
24547;SDS011;12713;51.624;4.924;2022-09-23T08:01:12;30.65;;;14.65;;
24547;SDS011;12713;51.624;4.924;2022-09-23T08:03:38;21.13;;;13.02;;
24547;SDS011;12713;51.624;4.924;2022-09-23T08:06:08;21.33;;;12.40;;
24547;SDS011;12713;51.624;4.924;2022-09-23T08:08:35;22.40;;;13.82;;
24547;SDS011;12713;51.624;4.924;2022-09-23T08:11:05;15.93;;;11.00;;
24547;SDS011;12713;51.624;4.924;2022-09-23T08:13:32;19.33;;;9.85;;
24547;SDS011;12713;51.624;4.924;2022-09-23T08:15:58;18.25;;;11.27;;
24547;SDS011;12713;51.624;4.924;2022-09-23T08:18:25;15.00;;;9.48;;
24547;SDS011;12713;51.624;4.924;2022-09-23T08:20:51;13.73;;;8.98;;
24547;SDS011;12713;51.624;4.924;2022-09-23T08:23:17;14.00;;;9.90;;
24547;SDS011;12713;51.624;4.924;2022-09-23T08:25:44;17.35;;;9.75;;
24547;SDS011;12713;51.624;4.924;2022-09-23T08:28:11;18.30;;;9.98;;
24547;SDS011;12713;51.624;4.924;2022-09-23T08:30:41;18.50;;;10.32;;
24547;SDS011;12713;51.624;4.924;2022-09-23T08:33:08;16.65;;;9.73;;
24547;SDS011;12713;51.624;4.924;2022-09-23T08:35:35;14.82;;;8.18;;
24547;SDS011;12713;51.624;4.924;2022-09-23T08:38:01;14.75;;;8.45;;
24547;SDS011;12713;51.624;4.924;2022-09-23T08:40:31;16.13;;;8.27;;
24547;SDS011;12713;51.624;4.924;2022-09-23T08:42:58;12.23;;;7.53;;
24547;SDS011;12713;51.624;4.924;2022-09-23T08:45:24;12.90;;;8.13;;
24547;SDS011;12713;51.624;4.924;2022-09-23T08:50:25;16.70;;;8.13;;
24547;SDS011;12713;51.624;4.924;2022-09-23T08:53:00;12.20;;;7.80;;
24547;SDS011;12713;51.624;4.924;2022-09-23T08:55:37;14.82;;;7.60;;
24547;SDS011;12713;51.624;4.924;2022-09-23T09:00:52;12.95;;;7.85;;
24547;SDS011;12713;51.624;4.924;2022-09-23T09:03:25;15.48;;;8.32;;
24547;SDS011;12713;51.624;4.924;2022-09-23T09:05:54;23.65;;;8.55;;
24547;SDS011;12713;51.624;4.924;2022-09-23T09:08:25;10.07;;;6.53;;
24547;SDS011;12713;51.624;4.924;2022-09-23T09:10:54;11.95;;;7.07;;
24547;SDS011;12713;51.624;4.924;2022-09-23T09:13:32;11.73;;;6.55;;
24547;SDS011;12713;51.624;4.924;2022-09-23T09:16:14;11.68;;;7.72;;
24547;SDS011;12713;51.624;4.924;2022-09-23T09:18:46;13.20;;;6.30;;
24547;SDS011;12713;51.624;4.924;2022-09-23T09:21:15;14.88;;;6.78;;
24547;SDS011;12713;51.624;4.924;2022-09-23T09:23:47;9.57;;;6.40;;
24547;SDS011;12713;51.624;4.924;2022-09-23T09:26:28;12.40;;;7.15;;
24547;SDS011;12713;51.624;4.924;2022-09-23T09:29:08;13.93;;;6.80;;
24547;SDS011;12713;51.624;4.924;2022-09-23T09:31:49;10.55;;;6.57;;
24547;SDS011;12713;51.624;4.924;2022-09-23T09:39:14;10.27;;;6.97;;
24547;SDS011;12713;51.624;4.924;2022-09-23T09:41:43;9.48;;;6.30;;
24547;SDS011;12713;51.624;4.924;2022-09-23T09:49:54;17.17;;;7.60;;
24547;SDS011;12713;51.624;4.924;2022-09-23T09:52:27;8.85;;;6.00;;
24547;SDS011;12713;51.624;4.924;2022-09-23T09:54:54;8.55;;;5.70;;
24547;SDS011;12713;51.624;4.924;2022-09-23T09:59:54;10.38;;;5.95;;
24547;SDS011;12713;51.624;4.924;2022-09-23T10:04:52;9.52;;;6.18;;
24547;SDS011;12713;51.624;4.924;2022-09-23T10:07:18;13.18;;;6.05;;
24547;SDS011;12713;51.624;4.924;2022-09-23T10:09:49;11.23;;;5.88;;
24547;SDS011;12713;51.624;4.924;2022-09-23T10:12:25;8.77;;;5.57;;
24547;SDS011;12713;51.624;4.924;2022-09-23T10:14:55;10.38;;;5.45;;
24547;SDS011;12713;51.624;4.924;2022-09-23T10:17:31;14.18;;;5.93;;
24547;SDS011;12713;51.624;4.924;2022-09-23T10:20:07;7.20;;;5.22;;
24547;SDS011;12713;51.624;4.924;2022-09-23T10:22:36;12.30;;;5.40;;
24547;SDS011;12713;51.624;4.924;2022-09-23T10:25:22;11.00;;;5.38;;
24547;SDS011;12713;51.624;4.924;2022-09-23T10:27:50;9.23;;;4.90;;
24547;SDS011;12713;51.624;4.924;2022-09-23T10:30:20;8.25;;;5.32;;
24547;SDS011;12713;51.624;4.924;2022-09-23T10:32:47;8.00;;;5.15;;
24547;SDS011;12713;51.624;4.924;2022-09-23T10:43:18;9.07;;;5.00;;
24547;SDS011;12713;51.624;4.924;2022-09-23T10:46:05;8.75;;;5.53;;
24547;SDS011;12713;51.624;4.924;2022-09-23T10:56:46;9.77;;;5.80;;
24547;SDS011;12713;51.624;4.924;2022-09-23T10:59:20;11.65;;;5.30;;
24547;SDS011;12713;51.624;4.924;2022-09-23T11:23:28;10.30;;;5.07;;
24547;SDS011;12713;51.624;4.924;2022-09-23T11:29:12;9.60;;;4.40;;
24547;SDS011;12713;51.624;4.924;2022-09-23T11:31:59;7.45;;;5.00;;
24547;SDS011;12713;51.624;4.924;2022-09-23T11:37:10;10.63;;;4.93;;
24547;SDS011;12713;51.624;4.924;2022-09-23T11:42:08;9.55;;;4.80;;
24547;SDS011;12713;51.624;4.924;2022-09-23T11:44:45;15.15;;;5.07;;
24547;SDS011;12713;51.624;4.924;2022-09-23T11:52:54;10.85;;;5.40;;
24547;SDS011;12713;51.624;4.924;2022-09-23T11:55:26;8.18;;;4.70;;
24547;SDS011;12713;51.624;4.924;2022-09-23T11:57:58;7.97;;;5.30;;
24547;SDS011;12713;51.624;4.924;2022-09-23T12:00:30;9.68;;;5.35;;
24547;SDS011;12713;51.624;4.924;2022-09-23T12:06:06;12.07;;;5.82;;
24547;SDS011;12713;51.624;4.924;2022-09-23T12:08:29;9.80;;;5.70;;
24547;SDS011;12713;51.624;4.924;2022-09-23T12:21:24;9.48;;;5.30;;
24547;SDS011;12713;51.624;4.924;2022-09-23T12:26:18;11.25;;;5.13;;
24547;SDS011;12713;51.624;4.924;2022-09-23T12:28:46;7.55;;;5.90;;
24547;SDS011;12713;51.624;4.924;2022-09-23T12:31:21;8.75;;;5.82;;
24547;SDS011;12713;51.624;4.924;2022-09-23T12:33:54;11.02;;;5.13;;
24547;SDS011;12713;51.624;4.924;2022-09-23T12:36:25;9.40;;;6.65;;
24547;SDS011;12713;51.624;4.924;2022-09-23T12:39:03;10.50;;;6.53;;
24547;SDS011;12713;51.624;4.924;2022-09-23T12:46:39;11.55;;;7.32;;
24547;SDS011;12713;51.624;4.924;2022-09-23T12:49:34;11.35;;;7.65;;
24547;SDS011;12713;51.624;4.924;2022-09-23T12:54:37;11.00;;;6.80;;
24547;SDS011;12713;51.624;4.924;2022-09-23T12:57:10;11.63;;;8.10;;
24547;SDS011;12713;51.624;4.924;2022-09-23T13:02:28;15.38;;;8.20;;
24547;SDS011;12713;51.624;4.924;2022-09-23T13:05:42;14.20;;;8.07;;
24547;SDS011;12713;51.624;4.924;2022-09-23T13:08:07;22.30;;;9.40;;
24547;SDS011;12713;51.624;4.924;2022-09-23T13:10:40;18.98;;;8.70;;
24547;SDS011;12713;51.624;4.924;2022-09-23T13:13:09;13.25;;;8.70;;
24547;SDS011;12713;51.624;4.924;2022-09-23T13:15:40;19.92;;;8.63;;
24547;SDS011;12713;51.624;4.924;2022-09-23T13:20:47;12.82;;;7.57;;
24547;SDS011;12713;51.624;4.924;2022-09-23T13:23:23;14.05;;;7.45;;
24547;SDS011;12713;51.624;4.924;2022-09-23T13:25:51;17.80;;;8.77;;
24547;SDS011;12713;51.624;4.924;2022-09-23T13:28:24;13.32;;;8.48;;
24547;SDS011;12713;51.624;4.924;2022-09-23T13:30:51;13.55;;;7.78;;
24547;SDS011;12713;51.624;4.924;2022-09-23T13:33:23;17.30;;;7.82;;
24547;SDS011;12713;51.624;4.924;2022-09-23T13:35:51;15.93;;;8.32;;
24547;SDS011;12713;51.624;4.924;2022-09-23T13:38:19;21.48;;;8.82;;
24547;SDS011;12713;51.624;4.924;2022-09-23T13:40:50;15.43;;;8.85;;
24547;SDS011;12713;51.624;4.924;2022-09-23T13:43:26;19.27;;;8.90;;
24547;SDS011;12713;51.624;4.924;2022-09-23T13:45:55;19.85;;;9.20;;
24547;SDS011;12713;51.624;4.924;2022-09-23T13:48:22;19.95;;;9.82;;
24547;SDS011;12713;51.624;4.924;2022-09-23T13:50:50;19.77;;;9.18;;
24547;SDS011;12713;51.624;4.924;2022-09-23T13:53:35;19.77;;;10.25;;
24547;SDS011;12713;51.624;4.924;2022-09-23T13:56:12;15.23;;;9.07;;
24547;SDS011;12713;51.624;4.924;2022-09-23T13:58:38;17.10;;;9.65;;
24547;SDS011;12713;51.624;4.924;2022-09-23T14:01:46;14.32;;;9.70;;
24547;SDS011;12713;51.624;4.924;2022-09-23T14:03:54;15.23;;;8.88;;
24547;SDS011;12713;51.624;4.924;2022-09-23T14:06:20;16.13;;;9.35;;
24547;SDS011;12713;51.624;4.924;2022-09-23T14:08:47;13.10;;;8.65;;
24547;SDS011;12713;51.624;4.924;2022-09-23T14:11:17;16.58;;;9.40;;
24547;SDS011;12713;51.624;4.924;2022-09-23T14:13:44;15.55;;;9.25;;
24547;SDS011;12713;51.624;4.924;2022-09-23T14:16:12;16.75;;;8.20;;
24547;SDS011;12713;51.624;4.924;2022-09-23T14:18:40;16.17;;;9.60;;
24547;SDS011;12713;51.624;4.924;2022-09-23T14:21:24;20.50;;;9.65;;
24547;SDS011;12713;51.624;4.924;2022-09-23T14:23:50;16.70;;;9.25;;
24547;SDS011;12713;51.624;4.924;2022-09-23T14:26:16;13.05;;;9.35;;
24547;SDS011;12713;51.624;4.924;2022-09-23T14:28:42;14.85;;;8.70;;
24547;SDS011;12713;51.624;4.924;2022-09-23T14:31:09;16.42;;;8.77;;
24547;SDS011;12713;51.624;4.924;2022-09-23T14:33:38;15.30;;;8.57;;
24547;SDS011;12713;51.624;4.924;2022-09-23T14:36:08;21.13;;;9.70;;
24547;SDS011;12713;51.624;4.924;2022-09-23T14:39:08;13.68;;;9.20;;
24547;SDS011;12713;51.624;4.924;2022-09-23T14:41:42;14.27;;;8.45;;
24547;SDS011;12713;51.624;4.924;2022-09-23T14:44:42;17.05;;;8.77;;
24547;SDS011;12713;51.624;4.924;2022-09-23T14:47:02;14.82;;;7.57;;
24547;SDS011;12713;51.624;4.924;2022-09-23T14:49:28;12.32;;;8.38;;
24547;SDS011;12713;51.624;4.924;2022-09-23T14:51:59;14.00;;;7.97;;
24547;SDS011;12713;51.624;4.924;2022-09-23T15:02:35;10.45;;;8.40;;
24547;SDS011;12713;51.624;4.924;2022-09-23T15:05:15;13.20;;;7.60;;
24547;SDS011;12713;51.624;4.924;2022-09-23T15:07:42;15.63;;;8.45;;
24547;SDS011;12713;51.624;4.924;2022-09-23T15:10:14;14.45;;;8.35;;
24547;SDS011;12713;51.624;4.924;2022-09-23T15:12:44;15.48;;;7.47;;
24547;SDS011;12713;51.624;4.924;2022-09-23T15:18:14;16.85;;;8.52;;
24547;SDS011;12713;51.624;4.924;2022-09-23T15:20:47;12.65;;;8.20;;
24547;SDS011;12713;51.624;4.924;2022-09-23T15:26:20;12.85;;;8.07;;
24547;SDS011;12713;51.624;4.924;2022-09-23T15:28:46;16.73;;;9.40;;
24547;SDS011;12713;51.624;4.924;2022-09-23T15:31:13;18.20;;;9.93;;
24547;SDS011;12713;51.624;4.924;2022-09-23T15:33:46;13.88;;;7.82;;
24547;SDS011;12713;51.624;4.924;2022-09-23T15:36:22;14.48;;;9.13;;
24547;SDS011;12713;51.624;4.924;2022-09-23T15:38:52;15.95;;;8.77;;
24547;SDS011;12713;51.624;4.924;2022-09-23T15:41:21;15.25;;;8.98;;
24547;SDS011;12713;51.624;4.924;2022-09-23T15:43:48;24.77;;;12.70;;
24547;SDS011;12713;51.624;4.924;2022-09-23T15:48:58;20.02;;;10.90;;
24547;SDS011;12713;51.624;4.924;2022-09-23T15:51:25;44.90;;;22.70;;
24547;SDS011;12713;51.624;4.924;2022-09-23T15:53:52;26.08;;;16.50;;
24547;SDS011;12713;51.624;4.924;2022-09-23T15:56:19;28.83;;;15.93;;
24547;SDS011;12713;51.624;4.924;2022-09-23T15:58:45;14.75;;;10.13;;
24547;SDS011;12713;51.624;4.924;2022-09-23T16:01:25;16.80;;;11.23;;
24547;SDS011;12713;51.624;4.924;2022-09-23T16:03:52;17.67;;;9.35;;
24547;SDS011;12713;51.624;4.924;2022-09-23T16:06:18;15.60;;;9.32;;
24547;SDS011;12713;51.624;4.924;2022-09-23T16:08:44;15.02;;;9.15;;
24547;SDS011;12713;51.624;4.924;2022-09-23T16:11:17;14.70;;;9.63;;
24547;SDS011;12713;51.624;4.924;2022-09-23T16:13:43;18.73;;;9.55;;
24547;SDS011;12713;51.624;4.924;2022-09-23T16:16:09;16.10;;;9.73;;
24547;SDS011;12713;51.624;4.924;2022-09-23T16:18:35;15.07;;;9.75;;
24547;SDS011;12713;51.624;4.924;2022-09-23T16:21:03;18.50;;;10.52;;
24547;SDS011;12713;51.624;4.924;2022-09-23T16:23:32;22.13;;;10.85;;
24547;SDS011;12713;51.624;4.924;2022-09-23T16:26:03;14.02;;;8.82;;
24547;SDS011;12713;51.624;4.924;2022-09-23T16:28:30;14.70;;;9.15;;
24547;SDS011;12713;51.624;4.924;2022-09-23T16:30:56;15.63;;;10.13;;
24547;SDS011;12713;51.624;4.924;2022-09-23T16:33:22;16.40;;;9.80;;
24547;SDS011;12713;51.624;4.924;2022-09-23T16:35:48;15.48;;;9.43;;
24547;SDS011;12713;51.624;4.924;2022-09-23T16:38:15;18.67;;;10.18;;
24547;SDS011;12713;51.624;4.924;2022-09-23T16:40:41;15.93;;;9.73;;
24547;SDS011;12713;51.624;4.924;2022-09-23T16:43:09;20.02;;;11.05;;
24547;SDS011;12713;51.624;4.924;2022-09-23T16:45:36;15.57;;;10.75;;
24547;SDS011;12713;51.624;4.924;2022-09-23T16:48:03;20.20;;;11.20;;
24547;SDS011;12713;51.624;4.924;2022-09-23T16:50:29;16.75;;;10.70;;
24547;SDS011;12713;51.624;4.924;2022-09-23T16:52:57;13.60;;;10.25;;
24547;SDS011;12713;51.624;4.924;2022-09-23T16:55:23;15.02;;;9.57;;
24547;SDS011;12713;51.624;4.924;2022-09-23T16:57:51;14.38;;;10.05;;
24547;SDS011;12713;51.624;4.924;2022-09-23T17:00:18;18.27;;;10.13;;
24547;SDS011;12713;51.624;4.924;2022-09-23T17:03:03;15.35;;;10.27;;
24547;SDS011;12713;51.624;4.924;2022-09-23T17:05:48;18.02;;;11.20;;
24547;SDS011;12713;51.624;4.924;2022-09-23T17:08:15;18.25;;;10.32;;
24547;SDS011;12713;51.624;4.924;2022-09-23T17:10:42;17.20;;;11.05;;
24547;SDS011;12713;51.624;4.924;2022-09-23T17:13:09;16.13;;;10.40;;
24547;SDS011;12713;51.624;4.924;2022-09-23T17:15:35;15.90;;;10.35;;
24547;SDS011;12713;51.624;4.924;2022-09-23T17:18:02;16.98;;;11.10;;
24547;SDS011;12713;51.624;4.924;2022-09-23T17:20:29;15.43;;;11.10;;
24547;SDS011;12713;51.624;4.924;2022-09-23T17:22:55;17.17;;;11.48;;
24547;SDS011;12713;51.624;4.924;2022-09-23T17:25:21;19.08;;;12.02;;